Impacts METAR Board
IDs:

KDEN - Denver Intl, CO, US

Updated at: 0300 UTC 06 Dec 2019
Potential Impact None Slight Moderate High
Time 05/15Z 05/16Z 05/17Z 05/18Z 05/19Z 05/20Z 05/21Z 05/22Z 05/23Z 06/00Z 06/01Z 06/02Z 06/03Z
Temp36 37 38 38 39 38 34 33 32 32 33 33 33
Dewpt27 32 33 36 38 36 33 32 32 32 32 32 32
Altim29.90 29.93 29.98 30.00 30.00 30.00 30.04 30.07 30.11 30.16 30.20 30.22 30.23
VIS10 10 10 5 4 5 3 2.5 3 1.25 1.25 1.25 6
CIG90 65 49 28 28 14 5 3 3 3 3 3 50
CoverOVCOVCOVCOVCOVCOVCOVCOVCOVCOVCOVCOVCOVC
FltCatVFRVFRVFRMVFRMVFRMVFRIFRLIFRLIFRLIFRLIFRLIFRVFR
WX-------RA BR-RA BR-RA BR-RA -SN BRBRBRBR-SN BR-SN BRBR
WDir26026019024027020201010350330290240
WSpd8 6 5 8 6 9 11 13 13 6 6 7 5
WGst-- -- -- -- -- -- -- -- -- -- -- -- --
Raw hourly METARs
KDEN 051453Z 26008KT 10SM OVC090 02/M03 A2990 RMK AO2 SLP125 T00221028 53015
KDEN 051553Z 26006KT 10SM SCT050 OVC065 03/00 A2993 RMK AO2 SLP138 T00280000
KDEN 051653Z 19005KT 10SM BKN049 OVC060 03/01 A2998 RMK AO2 SLP155 T00330006
KDEN 051753Z 24008KT 5SM -RA BR OVC028 03/02 A3000 RMK AO2 RAB08 SLP157 P0001 60001 T00330022 10039 20011 51028
KDEN 051853Z 27006KT 4SM -RA BR SCT020 BKN028 OVC038 04/03 A3000 RMK AO2 SLP149 P0003 T00390033
KDEN 051953Z 02009KT 5SM -RA BR FEW008 BKN014 OVC028 03/02 A3000 RMK AO2 SLP153 P0004 T00330022
KDEN 052053Z 02011KT 3SM -RASN BR BKN005 OVC010 01/01 A3004 RMK AO2 SNB31 SLP171 P0003 60010 T00110006 53012
KDEN 052158Z 01013KT 2 1/2SM BR OVC003 01/00 A3007 RMK AO2 RAE56SNE56 P0000 T00060000
KDEN 052253Z 01013KT 3SM BR OVC003 00/00 A3011 RMK AO2 RAE2156SNE2156 SLP197 P0000 T00000000
KDEN 060003Z 35006KT 1 1/4SM BR OVC003 00/00 A3016 RMK AO2 SFC VIS 3 T00000000
KDEN 060053Z 33006KT 1 1/4SM -SN BR OVC003 01/00 A3020 RMK AO2 SFC VIS 3 SNB32 SLP232 P0000 T00060000
KDEN 060153Z 29007KT 1 1/4SM -SN BR OVC003 01/00 A3022 RMK AO2 SFC VIS 1 3/4 SLP239 P0000 T00060000
KDEN 060253Z 24005KT 6SM BR FEW007 FEW035 OVC050 01/00 A3023 RMK AO2 SNE41 SLP243 P0000 60000 T00060000 51024



Page loaded:  03:46 UTC  |   07:46 PM Pacific  |   08:46 PM Mountain  |   09:46 PM Central  |   10:46 PM Eastern

 

ADVISORIES

FORECASTS

FORECASTS

OBSERVATIONS

USER TOOLS

ABOUT US